createdAt,value
2022-11-07T00:00:47.485Z,7.30
2022-11-07T00:04:45.481Z,7.97
2022-11-07T00:08:46.771Z,6.97
2022-11-07T00:12:47.842Z,7.20
2022-11-07T00:16:49.278Z,6.17
2022-11-07T00:20:50.360Z,6.73
2022-11-07T00:24:52.048Z,7.60
2022-11-07T00:28:53.117Z,7.00
2022-11-07T00:32:58.964Z,8.87
2022-11-07T00:36:57.186Z,6.70
2022-11-07T00:41:04.302Z,7.77
2022-11-07T00:45:07.673Z,7.83
2022-11-07T00:49:09.483Z,7.70
2022-11-07T00:53:10.898Z,7.97
2022-11-07T00:57:12.016Z,7.73
2022-11-07T01:01:17.081Z,7.90
2022-11-07T01:05:18.405Z,8.20
2022-11-07T01:09:21.482Z,9.23
2022-11-07T01:13:23.680Z,9.60
2022-11-07T01:17:24.930Z,10.27
2022-11-07T01:21:26.231Z,10.47
2022-11-07T01:25:27.324Z,10.20
2022-11-07T01:29:30.238Z,10.77
2022-11-07T01:33:31.769Z,11.00
2022-11-07T01:37:32.950Z,9.83
2022-11-07T01:41:36.112Z,10.90
2022-11-07T01:45:37.229Z,10.53
2022-11-07T01:49:41.908Z,11.03
2022-11-07T01:53:43.475Z,11.03
2022-11-07T01:58:08.627Z,12.63
2022-11-07T02:02:10.149Z,11.70
2022-11-07T02:06:22.484Z,12.80
2022-11-07T02:10:24.568Z,13.27
2022-11-07T02:14:25.746Z,12.03
2022-11-07T02:18:28.492Z,11.87
2022-11-07T02:22:34.068Z,13.40
2022-11-07T02:26:37.805Z,12.67
2022-11-07T02:30:39.189Z,13.43
2022-11-07T02:34:40.159Z,13.50
2022-11-07T02:38:42.021Z,12.43
2022-11-07T02:42:43.679Z,11.80
2022-11-07T02:46:45.918Z,13.17
2022-11-07T02:50:46.933Z,12.43
2022-11-07T02:54:48.218Z,11.47
2022-11-07T02:58:51.872Z,12.30
2022-11-07T03:02:59.296Z,11.70
2022-11-07T03:07:00.742Z,12.77
2022-11-07T03:11:02.369Z,11.77
2022-11-07T03:15:06.653Z,12.20
2022-11-07T03:19:07.787Z,12.73
2022-11-07T03:23:09.374Z,11.50
2022-11-07T03:27:10.452Z,11.03
2022-11-07T03:31:11.611Z,11.53
2022-11-07T03:35:13.159Z,12.50
2022-11-07T03:39:14.189Z,11.80
2022-11-07T03:43:15.806Z,12.10
2022-11-07T03:47:17.210Z,13.13
2022-11-07T03:51:18.393Z,13.33
2022-11-07T03:55:19.397Z,13.10
2022-11-07T03:59:20.592Z,12.87
2022-11-07T04:03:21.816Z,14.17
2022-11-07T04:07:23.058Z,11.63
2022-11-07T04:11:42.741Z,13.77
2022-11-07T04:16:03.462Z,12.80
2022-11-07T04:20:06.690Z,14.03
2022-11-07T04:24:07.994Z,14.50
2022-11-07T04:28:08.892Z,13.23
2022-11-07T04:32:10.154Z,15.00
2022-11-07T04:36:11.193Z,12.90
2022-11-07T04:40:12.848Z,14.30
2022-11-07T04:44:13.915Z,14.10
2022-11-07T04:48:15.194Z,14.43
2022-11-07T04:52:16.494Z,14.60
2022-11-07T04:56:17.763Z,15.97
2022-11-07T05:00:20.179Z,14.50
2022-11-07T05:04:21.457Z,14.30
2022-11-07T05:08:22.622Z,13.07
2022-11-07T05:12:23.960Z,13.77
2022-11-07T05:16:25.538Z,14.23
2022-11-07T05:20:37.286Z,15.33
2022-11-07T05:24:38.925Z,14.95
2022-11-07T05:28:40.445Z,13.97
2022-11-07T05:32:41.654Z,15.40
2022-11-07T05:36:42.723Z,14.67
2022-11-07T05:40:44.066Z,13.53
2022-11-07T05:44:45.080Z,13.30
2022-11-07T05:48:46.194Z,14.93
2022-11-07T05:52:47.273Z,14.47
2022-11-07T05:56:48.515Z,13.20
2022-11-07T06:00:49.744Z,14.10
2022-11-07T06:04:50.724Z,12.77
2022-11-07T06:08:51.813Z,12.47
2022-11-07T06:13:00.865Z,11.57
2022-11-07T06:17:02.199Z,11.70
2022-11-07T06:21:03.839Z,9.77
2022-11-07T06:25:05.315Z,10.87
2022-11-07T06:29:06.625Z,11.73
2022-11-07T06:33:11.697Z,11.83
2022-11-07T06:37:12.845Z,11.87
2022-11-07T06:41:14.603Z,12.00
2022-11-07T06:45:15.771Z,12.73
2022-11-07T06:49:16.773Z,12.10
2022-11-07T06:53:18.085Z,12.47
2022-11-07T06:57:19.440Z,10.57
2022-11-07T07:01:20.482Z,11.80
2022-11-07T07:05:21.753Z,12.17
2022-11-07T07:09:22.942Z,11.43
2022-11-07T07:13:24.451Z,11.10
2022-11-07T07:17:25.756Z,9.43
2022-11-07T07:21:26.794Z,10.10
2022-11-07T07:25:27.916Z,9.47
2022-11-07T07:29:29.234Z,9.00
2022-11-07T07:33:30.986Z,8.80
2022-11-07T07:37:32.409Z,8.30
2022-11-07T07:41:38.994Z,8.17
2022-11-07T07:45:36.668Z,8.90
2022-11-07T07:49:38.007Z,8.17
2022-11-07T07:53:39.270Z,8.03
2022-11-07T07:57:43.493Z,7.53
2022-11-07T08:01:44.789Z,8.00
2022-11-07T08:05:53.160Z,6.30
2022-11-07T08:09:54.336Z,6.77
2022-11-07T08:14:00.830Z,6.27
2022-11-07T08:18:01.790Z,6.07
2022-11-07T08:22:02.975Z,6.50
2022-11-07T08:26:05.097Z,6.17
2022-11-07T08:30:07.841Z,5.27
2022-11-07T08:34:08.956Z,5.00
2022-11-07T08:38:10.267Z,5.67
2022-11-07T08:46:25.215Z,5.13
2022-11-07T08:50:26.842Z,4.93
2022-11-07T08:54:31.720Z,4.33
2022-11-07T08:58:33.950Z,4.83
2022-11-07T09:06:38.228Z,3.97
2022-11-07T09:10:39.619Z,4.83
2022-11-07T09:14:40.664Z,4.17
2022-11-07T09:18:41.829Z,3.50
2022-11-07T09:22:42.918Z,3.57
2022-11-07T09:26:44.213Z,3.70
2022-11-07T09:30:45.561Z,4.93
2022-11-07T09:34:50.560Z,4.13
2022-11-07T09:38:50.022Z,3.50
2022-11-07T09:43:13.625Z,4.33
2022-11-07T09:47:27.107Z,4.50
2022-11-07T09:51:38.362Z,4.57
2022-11-07T09:55:43.930Z,4.83
2022-11-07T09:59:57.810Z,4.37
2022-11-07T10:08:18.886Z,4.20
2022-11-07T10:12:27.229Z,3.77
2022-11-07T10:16:46.409Z,3.13
2022-11-07T10:21:38.000Z,3.50
2022-11-07T10:25:37.205Z,3.40
2022-11-07T10:29:48.291Z,2.87
2022-11-07T10:33:53.284Z,3.40
2022-11-07T10:37:57.465Z,3.03
2022-11-07T10:42:14.898Z,2.93
2022-11-07T10:46:28.714Z,3.00
2022-11-07T10:50:31.073Z,2.47
2022-11-07T10:54:32.864Z,2.73
2022-11-07T10:58:37.085Z,2.17
2022-11-07T11:02:49.275Z,2.07
2022-11-07T11:07:06.002Z,2.77
2022-11-07T11:11:30.057Z,1.70
2022-11-07T11:15:35.579Z,1.63
2022-11-07T11:19:38.166Z,2.30
2022-11-07T11:23:43.005Z,2.13
2022-11-07T11:27:47.305Z,2.17
2022-11-07T11:31:54.468Z,2.00
2022-11-07T11:36:05.706Z,2.10
2022-11-07T11:40:11.086Z,2.30
2022-11-07T11:44:21.930Z,3.43
2022-11-07T11:48:32.906Z,2.47
2022-11-07T11:52:34.890Z,2.63
2022-11-07T11:56:42.835Z,2.67
2022-11-07T12:00:50.861Z,2.73
2022-11-07T12:05:12.726Z,3.17
2022-11-07T12:09:24.342Z,3.40
2022-11-07T12:13:32.421Z,2.20
2022-11-07T12:18:03.179Z,2.50
2022-11-07T12:22:08.292Z,2.40
2022-11-07T12:26:28.646Z,2.60
2022-11-07T12:30:54.727Z,2.87
2022-11-07T12:35:14.694Z,2.37
2022-11-07T12:39:45.901Z,2.77
2022-11-07T12:43:57.094Z,3.40
2022-11-07T12:48:10.208Z,2.67
2022-11-07T12:52:31.732Z,2.97
2022-11-07T12:56:36.097Z,2.37
2022-11-07T13:00:37.382Z,2.40
2022-11-07T13:04:51.151Z,2.47
2022-11-07T13:08:58.851Z,2.60
2022-11-07T13:13:06.766Z,2.60
2022-11-07T13:17:19.377Z,2.90
2022-11-07T13:21:21.486Z,3.67
2022-11-07T13:25:31.445Z,3.27
2022-11-07T13:29:39.061Z,2.57
2022-11-07T13:33:40.175Z,3.07
2022-11-07T13:37:45.145Z,3.90
2022-11-07T13:41:48.272Z,2.30
2022-11-07T13:45:59.195Z,3.40
2022-11-07T13:50:04.239Z,3.43
2022-11-07T13:54:27.222Z,3.40
2022-11-07T13:58:31.074Z,3.80
2022-11-07T14:02:34.390Z,3.17
2022-11-07T14:06:36.459Z,3.03
2022-11-07T14:10:46.592Z,4.00
2022-11-07T14:14:49.964Z,3.13
2022-11-07T14:18:58.105Z,3.27
2022-11-07T14:23:00.568Z,2.90
2022-11-07T14:27:05.480Z,3.80
2022-11-07T14:31:10.119Z,3.67
2022-11-07T14:35:13.117Z,4.23
2022-11-07T14:39:16.599Z,4.83
2022-11-07T14:43:20.240Z,4.50
2022-11-07T14:47:27.561Z,3.90
2022-11-07T14:51:29.016Z,3.67
2022-11-07T14:55:43.063Z,4.23
2022-11-07T14:59:44.476Z,3.73
2022-11-07T15:03:55.631Z,3.17
2022-11-07T15:07:59.078Z,3.20
2022-11-07T15:12:00.634Z,3.70
2022-11-07T15:16:05.767Z,2.80
2022-11-07T15:20:09.430Z,3.00
2022-11-07T15:24:38.471Z,4.27
2022-11-07T15:28:45.832Z,3.53
2022-11-07T15:32:46.852Z,3.70
2022-11-07T15:36:47.994Z,4.13
2022-11-07T15:40:50.972Z,3.90
2022-11-07T15:44:52.146Z,3.33
2022-11-07T15:48:53.833Z,4.77
2022-11-07T15:52:54.887Z,4.13
2022-11-07T15:56:59.650Z,3.70
2022-11-07T16:01:01.124Z,3.97
2022-11-07T16:05:02.373Z,4.40
2022-11-07T16:09:06.372Z,4.50
2022-11-07T16:13:08.760Z,5.47
2022-11-07T16:17:16.426Z,4.90
2022-11-07T16:21:19.224Z,4.00
2022-11-07T16:25:30.808Z,5.50
2022-11-07T16:29:32.772Z,5.00
2022-11-07T16:33:34.198Z,4.55
2022-11-07T16:37:35.580Z,3.87
2022-11-07T16:41:36.879Z,4.90
2022-11-07T16:45:47.217Z,5.57
2022-11-07T16:49:51.047Z,3.73
2022-11-07T16:53:51.579Z,4.20
2022-11-07T16:57:53.607Z,4.97
2022-11-07T17:01:55.079Z,4.70
2022-11-07T17:05:58.625Z,4.70
2022-11-07T17:09:59.675Z,5.13
2022-11-07T17:14:00.913Z,4.27
2022-11-07T17:18:07.257Z,3.97
2022-11-07T17:22:05.967Z,3.80
2022-11-07T17:26:09.102Z,5.63
2022-11-07T17:30:14.368Z,4.37
2022-11-07T17:34:15.753Z,4.03
2022-11-07T17:38:17.670Z,5.50
2022-11-07T17:42:19.321Z,4.87
2022-11-07T17:46:26.413Z,4.87
2022-11-07T17:50:27.817Z,5.00
2022-11-07T17:54:29.825Z,4.20
2022-11-07T17:58:31.034Z,4.80
2022-11-07T18:02:32.164Z,8.13
2022-11-07T18:06:35.877Z,7.40
2022-11-07T18:10:37.058Z,10.13
2022-11-07T18:14:38.469Z,7.47
2022-11-07T18:18:39.751Z,5.33
2022-11-07T18:22:40.961Z,5.60
2022-11-07T18:26:42.196Z,6.33
2022-11-07T18:30:43.629Z,6.97
2022-11-07T18:34:44.949Z,8.17
2022-11-07T18:38:49.700Z,7.07
2022-11-07T18:42:51.402Z,6.37
2022-11-07T18:46:52.403Z,6.67
2022-11-07T18:50:55.641Z,6.23
2022-11-07T18:54:57.194Z,6.80
2022-11-07T18:58:58.867Z,5.77
2022-11-07T19:03:00.521Z,6.83
2022-11-07T19:07:01.738Z,6.13
2022-11-07T19:11:05.176Z,6.10
2022-11-07T19:15:07.773Z,5.20
2022-11-07T19:19:08.723Z,5.97
2022-11-07T19:23:11.163Z,8.10
2022-11-07T19:27:12.830Z,6.17
2022-11-07T19:31:14.786Z,6.37
2022-11-07T19:35:17.078Z,7.23
2022-11-07T19:39:18.214Z,6.10
2022-11-07T19:43:19.968Z,6.63
2022-11-07T19:47:21.480Z,7.37
2022-11-07T19:51:23.365Z,9.27
2022-11-07T19:55:24.742Z,7.57
2022-11-07T19:59:46.149Z,8.37
2022-11-07T20:03:49.854Z,6.93
2022-11-07T20:07:55.406Z,9.47
2022-11-07T20:11:58.059Z,8.07
2022-11-07T20:16:09.113Z,9.67
2022-11-07T20:20:13.640Z,7.30
2022-11-07T20:24:14.484Z,9.17
2022-11-07T20:28:15.683Z,13.57
2022-11-07T20:32:17.029Z,16.33
2022-11-07T20:36:18.413Z,10.73
2022-11-07T20:40:22.020Z,8.50
2022-11-07T20:44:23.297Z,8.30
2022-11-07T20:48:24.258Z,6.87
2022-11-07T20:52:25.780Z,7.93
2022-11-07T20:56:28.907Z,7.90
2022-11-07T21:00:30.282Z,7.20
2022-11-07T21:04:44.420Z,7.53
2022-11-07T21:08:37.327Z,7.50
2022-11-07T21:12:37.652Z,7.57
2022-11-07T21:16:38.571Z,8.10
2022-11-07T21:20:39.862Z,9.30
2022-11-07T21:24:41.069Z,8.20
2022-11-07T21:28:42.218Z,8.77
2022-11-07T21:32:55.602Z,8.33
2022-11-07T21:36:56.954Z,7.63
2022-11-07T21:40:58.263Z,8.87
2022-11-07T21:44:59.311Z,8.50
2022-11-07T21:49:00.901Z,10.07
2022-11-07T21:53:01.920Z,10.03
2022-11-07T21:57:02.965Z,8.60
2022-11-07T22:01:04.881Z,9.30
2022-11-07T22:05:07.138Z,8.20
2022-11-07T22:09:09.693Z,8.60
2022-11-07T22:13:10.897Z,8.67
2022-11-07T22:17:11.747Z,7.77
2022-11-07T22:21:15.839Z,7.70
2022-11-07T22:25:17.022Z,8.70
2022-11-07T22:29:18.251Z,8.53
2022-11-07T22:33:19.464Z,8.53
2022-11-07T22:37:20.678Z,8.13
2022-11-07T22:41:23.532Z,6.90
2022-11-07T22:45:24.453Z,6.77
2022-11-07T22:49:25.671Z,6.80
2022-11-07T22:53:26.632Z,6.90
2022-11-07T22:57:27.832Z,6.57
2022-11-07T23:01:31.798Z,5.80
2022-11-07T23:05:34.196Z,6.80
2022-11-07T23:09:35.209Z,7.80
2022-11-07T23:13:36.174Z,7.43
2022-11-07T23:17:38.584Z,7.33
2022-11-07T23:21:40.326Z,7.60
2022-11-07T23:25:41.423Z,7.63
2022-11-07T23:29:43.420Z,8.23
2022-11-07T23:33:44.627Z,7.80
2022-11-07T23:37:45.683Z,7.60
2022-11-07T23:41:46.946Z,7.30
2022-11-07T23:46:06.628Z,6.60
2022-11-07T23:50:27.241Z,6.70
2022-11-07T23:54:46.937Z,6.53
2022-11-07T23:59:07.052Z,6.50
